Time,TemperatureF,DewpointF,PressureIn,WindDirection,WindDirectionDegrees,WindSpeedMPH,WindSpeedGustMPH,Humidity,HourlyPrecipIn,Conditions,Clouds,dailyrainin,SolarRadiationWatts/m^2,SoftwareType,DateUTC
2013-01-02 00:00:00,9.0,0.0,30.48,NNW,340,2.0,-999.0,75,-99.99,,,0.07,0.0,cwc,2013-01-02 07:00:00,
2013-01-02 00:05:00,8.9,-0.1,30.48,NNW,340,3.0,-999.0,75,-99.99,,,0.00,0.0,cwc,2013-01-02 07:05:00,
2013-01-02 00:10:00,8.9,-0.1,30.48,NNW,341,1.0,-999.0,75,-99.99,,,0.00,0.0,cwc,2013-01-02 07:10:00,
2013-01-02 00:15:00,8.9,-0.5,30.48,NW,323,4.0,-999.0,74,-99.99,,,0.00,0.0,cwc,2013-01-02 07:15:00,
2013-01-02 00:20:00,8.7,-0.7,30.48,NW,323,1.0,-999.0,74,-99.99,,,0.00,0.0,cwc,2013-01-02 07:20:00,
2013-01-02 00:25:00,8.5,-1.2,30.48,NW,323,0.0,-999.0,73,-99.99,,,0.00,0.0,cwc,2013-01-02 07:25:00,
2013-01-02 00:30:00,8.2,-1.2,30.48,NW,323,2.0,-999.0,74,-99.99,,,0.00,0.0,cwc,2013-01-02 07:30:00,
2013-01-02 00:35:00,8.0,-1.4,30.48,NW,325,5.0,-999.0,74,-99.99,,,0.00,0.0,cwc,2013-01-02 07:35:00,
2013-01-02 00:40:00,7.8,-1.6,30.48,NW,326,0.0,-999.0,74,-99.99,,,0.00,0.0,cwc,2013-01-02 07:40:00,
2013-01-02 00:45:00,7.7,-1.7,30.48,NNW,333,4.0,-999.0,74,-99.99,,,0.00,0.0,cwc,2013-01-02 07:45:00,
2013-01-02 00:50:00,7.6,-1.8,30.48,NNW,333,3.0,-999.0,74,-99.99,,,0.00,0.0,cwc,2013-01-02 07:50:00,
2013-01-02 00:55:00,7.3,-2.4,30.48,NNW,333,4.0,-999.0,73,-99.99,,,0.00,0.0,cwc,2013-01-02 07:55:00,
2013-01-02 01:00:00,6.9,-2.8,30.48,NNW,342,3.0,-999.0,73,-99.99,,,0.00,0.0,cwc,2013-01-02 08:00:00,
2013-01-02 01:05:00,6.6,-2.8,30.49,NNW,340,1.0,-999.0,74,-99.99,,,0.00,0.0,cwc,2013-01-02 08:05:00,
2013-01-02 01:15:00,6.5,-2.9,30.49,NNW,342,3.0,-999.0,74,-99.99,,,0.00,0.0,cwc,2013-01-02 08:15:00,
2013-01-02 01:20:00,6.4,-3.0,30.49,NNW,340,6.0,-999.0,74,-99.99,,,0.00,0.0,cwc,2013-01-02 08:20:00,
2013-01-02 01:25:00,6.2,-3.5,30.49,NNW,338,4.0,-999.0,73,-99.99,,,0.00,0.0,cwc,2013-01-02 08:25:00,
2013-01-02 01:30:00,5.9,-3.8,30.49,NNW,338,3.0,-999.0,73,-99.99,,,0.00,0.0,cwc,2013-01-02 08:30:00,
2013-01-02 01:35:00,5.6,-4.1,30.50,NNW,338,6.0,-999.0,73,-99.99,,,0.00,0.0,cwc,2013-01-02 08:35:00,
2013-01-02 01:45:00,5.1,-4.6,30.50,NNW,337,6.0,-999.0,73,-99.99,,,0.00,0.0,cwc,2013-01-02 08:45:00,
2013-01-02 01:55:00,4.8,-4.9,30.51,NNW,337,1.0,-999.0,73,-99.99,,,0.00,0.0,cwc,2013-01-02 08:55:00,
2013-01-02 02:00:00,4.7,-5.0,30.50,NNW,337,4.0,-999.0,73,-99.99,,,0.00,0.0,cwc,2013-01-02 09:00:00,
2013-01-02 02:05:00,4.5,-5.2,30.51,NNW,336,7.0,-999.0,73,-99.99,,,0.00,0.0,cwc,2013-01-02 09:05:00,
2013-01-02 02:10:00,4.3,-5.4,30.51,NNW,336,1.0,-999.0,73,-99.99,,,0.00,0.0,cwc,2013-01-02 09:10:00,
2013-01-02 02:15:00,4.1,-5.6,30.51,NNW,336,2.0,-999.0,73,-99.99,,,0.00,0.0,cwc,2013-01-02 09:15:00,
2013-01-02 02:20:00,4.0,-5.4,30.51,NNW,333,4.0,-999.0,74,-99.99,,,0.00,0.0,cwc,2013-01-02 09:20:00,
2013-01-02 02:25:00,3.8,-5.6,30.51,NNW,333,0.0,-999.0,74,-99.99,,,0.00,0.0,cwc,2013-01-02 09:25:00,
2013-01-02 02:30:00,3.6,-5.8,30.52,NNW,333,2.0,-999.0,74,-99.99,,,0.00,0.0,cwc,2013-01-02 09:30:00,
2013-01-02 02:35:00,3.5,-5.9,30.52,NNW,333,2.0,-999.0,74,-99.99,,,0.00,0.0,cwc,2013-01-02 09:35:00,
2013-01-02 02:40:00,3.3,-6.1,30.52,NNW,333,0.0,-999.0,74,-99.99,,,0.00,0.0,cwc,2013-01-02 09:40:00,
2013-01-02 02:45:00,3.1,-6.3,30.52,NNW,333,1.0,-999.0,74,-99.99,,,0.00,0.0,cwc,2013-01-02 09:45:00,
2013-01-02 02:55:00,3.0,-6.4,30.53,NNW,333,1.0,-999.0,74,-99.99,,,0.00,0.0,cwc,2013-01-02 09:55:00,
2013-01-02 03:00:00,2.8,-6.6,30.53,NNW,333,2.0,-999.0,74,-99.99,,,0.00,0.0,cwc,2013-01-02 10:00:00,
2013-01-02 03:10:00,2.7,-6.3,30.53,NNW,333,2.0,-999.0,75,-99.99,,,0.00,0.0,cwc,2013-01-02 10:10:00,
2013-01-02 03:15:00,2.6,-6.8,30.53,NNW,333,0.0,-999.0,74,-99.99,,,0.00,0.0,cwc,2013-01-02 10:15:00,
2013-01-02 03:20:00,2.3,-7.4,30.53,NNW,333,0.0,-999.0,73,-99.99,,,0.00,0.0,cwc,2013-01-02 10:20:00,
2013-01-02 03:25:00,1.7,-8.0,30.53,NNW,333,1.0,-999.0,73,-99.99,,,0.00,0.0,cwc,2013-01-02 10:25:00,
2013-01-02 03:35:00,0.5,-8.9,30.53,NNW,333,1.0,-999.0,74,-99.99,,,0.00,0.0,cwc,2013-01-02 10:35:00,
2013-01-02 03:45:00,-1.1,-10.5,30.53,NNW,333,1.0,-999.0,74,-99.99,,,0.00,0.0,cwc,2013-01-02 10:45:00,
2013-01-02 03:50:00,-1.6,-10.2,30.53,NNW,333,1.0,-999.0,76,-99.99,,,0.00,0.0,cwc,2013-01-02 10:50:00,
2013-01-02 03:55:00,-2.0,-10.6,30.53,NNW,333,1.0,-999.0,76,-99.99,,,0.00,0.0,cwc,2013-01-02 10:55:00,
2013-01-02 04:00:00,-2.2,-10.1,30.53,NNW,333,0.0,-999.0,78,-99.99,,,0.00,0.0,cwc,2013-01-02 11:00:00,
2013-01-02 04:05:00,-2.4,-11.0,30.53,NNW,333,0.0,-999.0,76,-99.99,,,0.00,0.0,cwc,2013-01-02 11:05:00,
2013-01-02 04:10:00,-2.9,-11.9,30.53,NNW,333,0.0,-999.0,75,-99.99,,,0.00,0.0,cwc,2013-01-02 11:10:00,
2013-01-02 04:15:00,-3.4,-12.4,30.53,NNW,333,0.0,-999.0,75,-99.99,,,0.00,0.0,cwc,2013-01-02 11:15:00,
2013-01-02 04:20:00,-4.1,-13.5,30.53,NNW,333,1.0,-999.0,74,-99.99,,,0.00,0.0,cwc,2013-01-02 11:20:00,
2013-01-02 04:25:00,-4.8,-13.8,30.54,NNW,333,3.0,-999.0,75,-99.99,,,0.00,0.0,cwc,2013-01-02 11:25:00,
2013-01-02 04:30:00,-4.9,-12.8,30.54,NNW,333,3.0,-999.0,78,-99.99,,,0.00,0.0,cwc,2013-01-02 11:30:00,
2013-01-02 04:35:00,-5.1,-13.0,30.54,NNW,333,0.0,-999.0,78,-99.99,,,0.00,0.0,cwc,2013-01-02 11:35:00,
2013-01-02 04:45:00,-4.6,-11.4,30.54,NNW,333,0.0,-999.0,81,-99.99,,,0.00,0.0,cwc,2013-01-02 11:45:00,
2013-01-02 04:55:00,-4.7,-12.3,30.54,NNW,333,0.0,-999.0,79,-99.99,,,0.00,0.0,cwc,2013-01-02 11:55:00,
2013-01-02 05:00:00,-5.0,-13.3,30.54,NNW,333,0.0,-999.0,77,-99.99,,,0.00,0.0,cwc,2013-01-02 12:00:00,
2013-01-02 05:10:00,-5.5,-13.8,30.55,NNW,333,0.0,-999.0,77,-99.99,,,0.00,0.0,cwc,2013-01-02 12:10:00,
2013-01-02 05:15:00,-5.8,-13.7,30.55,NNW,333,2.0,-999.0,78,-99.99,,,0.00,0.0,cwc,2013-01-02 12:15:00,
2013-01-02 05:20:00,-5.7,-12.9,30.56,NNW,333,0.0,-999.0,80,-99.99,,,0.00,0.0,cwc,2013-01-02 12:20:00,
2013-01-02 05:25:00,-5.6,-13.2,30.56,NNW,333,1.0,-999.0,79,-99.99,,,0.00,0.0,cwc,2013-01-02 12:25:00,
2013-01-02 05:30:00,-6.0,-14.3,30.56,NNW,333,0.0,-999.0,77,-99.99,,,0.00,0.0,cwc,2013-01-02 12:30:00,
2013-01-02 05:35:00,-6.4,-14.7,30.56,NNW,333,0.0,-999.0,77,-99.99,,,0.00,0.0,cwc,2013-01-02 12:35:00,
2013-01-02 05:45:00,-6.8,-15.1,30.56,NNW,333,0.0,-999.0,77,-99.99,,,0.00,0.0,cwc,2013-01-02 12:45:00,
2013-01-02 05:50:00,-7.0,-15.3,30.56,NNW,333,1.0,-999.0,77,-99.99,,,0.00,0.0,cwc,2013-01-02 12:50:00,
2013-01-02 05:55:00,-7.2,-15.1,30.56,NNW,333,1.0,-999.0,78,-99.99,,,0.00,0.0,cwc,2013-01-02 12:55:00,
2013-01-02 06:00:00,-7.3,-15.2,30.56,NNW,333,0.0,-999.0,78,-99.99,,,0.00,0.0,cwc,2013-01-02 13:00:00,
2013-01-02 06:05:00,-7.5,-15.8,30.56,NNW,333,0.0,-999.0,77,-99.99,,,0.00,0.0,cwc,2013-01-02 13:05:00,
2013-01-02 06:15:00,-8.1,-16.7,30.56,NNW,333,1.0,-999.0,76,-99.99,,,0.00,0.0,cwc,2013-01-02 13:15:00,
2013-01-02 06:20:00,-8.4,-16.7,30.57,NNW,333,0.0,-999.0,77,-99.99,,,0.00,0.0,cwc,2013-01-02 13:20:00,
2013-01-02 06:25:00,-8.6,-16.9,30.57,NNW,333,1.0,-999.0,77,-99.99,,,0.00,0.0,cwc,2013-01-02 13:25:00,
2013-01-02 06:30:00,-9.0,-17.3,30.57,NNW,333,2.0,-999.0,77,-99.99,,,0.00,0.0,cwc,2013-01-02 13:30:00,
2013-01-02 06:35:00,-8.8,-16.4,30.57,NNW,333,0.0,-999.0,79,-99.99,,,0.00,0.0,cwc,2013-01-02 13:35:00,
2013-01-02 06:40:00,-8.6,-16.2,30.57,NNW,333,0.0,-999.0,79,-99.99,,,0.00,0.0,cwc,2013-01-02 13:40:00,
2013-01-02 06:45:00,-8.4,-15.6,30.57,NNW,333,1.0,-999.0,80,-99.99,,,0.00,0.0,cwc,2013-01-02 13:45:00,
2013-01-02 06:55:00,-8.8,-16.7,30.57,NNW,333,0.0,-999.0,78,-99.99,,,0.00,0.0,cwc,2013-01-02 13:55:00,
2013-01-02 07:00:00,-9.0,-17.3,30.58,NNW,333,0.0,-999.0,77,-99.99,,,0.00,0.0,cwc,2013-01-02 14:00:00,
2013-01-02 07:10:00,-8.9,-16.1,30.58,NNW,333,0.0,-999.0,80,-99.99,,,0.00,0.0,cwc,2013-01-02 14:10:00,
2013-01-02 07:15:00,-8.7,-16.3,30.58,NNW,333,0.0,-999.0,79,-99.99,,,0.00,0.0,cwc,2013-01-02 14:15:00,
2013-01-02 07:20:00,-8.8,-16.7,30.59,NNW,333,0.0,-999.0,78,-99.99,,,0.00,5.0,cwc,2013-01-02 14:20:00,
2013-01-02 07:25:00,-9.1,-17.4,30.59,NNW,333,0.0,-999.0,77,-99.99,,,0.00,7.0,cwc,2013-01-02 14:25:00,
2013-01-02 07:30:00,-8.4,-14.9,30.59,NNW,333,2.0,-999.0,82,-99.99,,,0.00,9.0,cwc,2013-01-02 14:30:00,
2013-01-02 07:40:00,-5.7,-11.5,30.60,NNW,338,4.0,-999.0,84,-99.99,,,0.00,19.0,cwc,2013-01-02 14:40:00,
2013-01-02 07:45:00,-3.6,-9.7,30.60,NNW,338,5.0,-999.0,83,-99.99,,,0.00,28.0,cwc,2013-01-02 14:45:00,
2013-01-02 07:50:00,-2.5,-9.3,30.60,NNW,342,4.0,-999.0,81,-99.99,,,0.00,40.0,cwc,2013-01-02 14:50:00,
2013-01-02 07:55:00,-1.8,-9.0,30.59,NW,324,1.0,-999.0,80,-99.99,,,0.00,56.0,cwc,2013-01-02 14:55:00,
2013-01-02 08:00:00,-1.5,-9.4,30.60,NW,325,1.0,-999.0,78,-99.99,,,0.00,70.0,cwc,2013-01-02 15:00:00,
2013-01-02 08:05:00,-1.8,-11.2,30.60,NW,325,3.0,-999.0,74,-99.99,,,0.00,84.0,cwc,2013-01-02 15:05:00,
2013-01-02 08:10:00,-2.4,-11.0,30.60,NW,323,3.0,-999.0,76,-99.99,,,0.00,97.0,cwc,2013-01-02 15:10:00,
2013-01-02 08:15:00,-2.4,-12.1,30.60,NNW,331,2.0,-999.0,73,-99.99,,,0.00,111.0,cwc,2013-01-02 15:15:00,
2013-01-02 08:20:00,-2.6,-12.0,30.60,NNW,331,3.0,-999.0,74,-99.99,,,0.00,127.0,cwc,2013-01-02 15:20:00,
2013-01-02 08:30:00,-1.8,-9.4,30.60,NNW,329,0.0,-999.0,79,-99.99,,,0.00,158.0,cwc,2013-01-02 15:30:00,
2013-01-02 08:40:00,0.1,-7.8,30.60,NNW,327,3.0,-999.0,78,-99.99,,,0.00,190.0,cwc,2013-01-02 15:40:00,
2013-01-02 08:45:00,1.2,-7.1,30.60,NNW,329,2.0,-999.0,77,-99.99,,,0.00,207.0,cwc,2013-01-02 15:45:00,
2013-01-02 08:50:00,1.9,-7.1,30.60,NNW,331,2.0,-999.0,75,-99.99,,,0.00,227.0,cwc,2013-01-02 15:50:00,
2013-01-02 08:55:00,2.6,-6.8,30.60,NNW,331,3.0,-999.0,74,-99.99,,,0.00,244.0,cwc,2013-01-02 15:55:00,
2013-01-02 09:00:00,3.1,-6.6,30.60,NNW,334,2.0,-999.0,73,-99.99,,,0.00,260.0,cwc,2013-01-02 16:00:00,
2013-01-02 09:10:00,4.2,-5.9,30.61,NNW,334,1.0,-999.0,72,-99.99,,,0.00,294.0,cwc,2013-01-02 16:10:00,
2013-01-02 09:15:00,5.0,-5.1,30.61,NNW,334,0.0,-999.0,72,-99.99,,,0.00,308.0,cwc,2013-01-02 16:15:00,
2013-01-02 09:20:00,6.0,-4.8,30.61,NNW,334,0.0,-999.0,70,-99.99,,,0.00,320.0,cwc,2013-01-02 16:20:00,
2013-01-02 09:25:00,6.8,-4.4,30.61,NNW,334,3.0,-999.0,69,-99.99,,,0.00,327.0,cwc,2013-01-02 16:25:00,
2013-01-02 09:30:00,7.1,-4.4,30.61,NW,304,2.0,-999.0,68,-99.99,,,0.00,348.0,cwc,2013-01-02 16:30:00,
2013-01-02 09:40:00,7.8,-4.1,30.61,NNE,26,5.0,-999.0,67,-99.99,,,0.00,373.0,cwc,2013-01-02 16:40:00,
2013-01-02 09:45:00,8.1,-3.8,30.61,NNE,21,4.0,-999.0,67,-99.99,,,0.00,387.0,cwc,2013-01-02 16:45:00,
2013-01-02 09:55:00,8.6,-2.9,30.60,NNE,28,4.0,-999.0,68,-99.99,,,0.00,410.0,cwc,2013-01-02 16:55:00,
2013-01-02 10:00:00,9.0,-2.9,30.60,NNE,29,2.0,-999.0,67,-99.99,,,0.00,420.0,cwc,2013-01-02 17:00:00,
2013-01-02 10:05:00,9.5,-2.4,30.60,NNE,28,2.0,-999.0,67,-99.99,,,0.00,431.0,cwc,2013-01-02 17:05:00,
2013-01-02 10:10:00,10.0,-1.9,30.60,NNE,28,4.0,-999.0,67,-99.99,,,0.00,439.0,cwc,2013-01-02 17:10:00,
2013-01-02 10:15:00,10.9,-1.3,30.60,NE,34,5.0,-999.0,66,-99.99,,,0.00,450.0,cwc,2013-01-02 17:15:00,
2013-01-02 10:20:00,11.5,-1.8,30.60,NE,34,1.0,-999.0,63,-99.99,,,0.00,459.0,cwc,2013-01-02 17:20:00,
2013-01-02 10:25:00,12.0,-2.0,30.60,NE,34,0.0,-999.0,61,-99.99,,,0.00,469.0,cwc,2013-01-02 17:25:00,
2013-01-02 10:30:00,12.6,-1.4,30.60,NE,34,0.0,-999.0,61,-99.99,,,0.00,476.0,cwc,2013-01-02 17:30:00,
2013-01-02 10:35:00,13.1,-1.7,30.59,NE,34,2.0,-999.0,59,-99.99,,,0.00,487.0,cwc,2013-01-02 17:35:00,
2013-01-02 10:45:00,13.2,-0.8,30.58,NE,34,2.0,-999.0,61,-99.99,,,0.00,501.0,cwc,2013-01-02 17:45:00,
2013-01-02 10:50:00,13.9,0.2,30.58,NNE,33,6.0,-999.0,62,-99.99,,,0.00,508.0,cwc,2013-01-02 17:50:00,
2013-01-02 10:55:00,14.7,0.7,30.57,NE,48,5.0,-999.0,61,-99.99,,,0.00,515.0,cwc,2013-01-02 17:55:00,
2013-01-02 11:00:00,15.3,1.3,30.57,NE,55,7.0,-999.0,61,-99.99,,,0.00,520.0,cwc,2013-01-02 18:00:00,
2013-01-02 11:05:00,15.9,1.1,30.56,ENE,57,5.0,-999.0,59,-99.99,,,0.00,526.0,cwc,2013-01-02 18:05:00,
2013-01-02 11:10:00,16.3,1.5,30.56,ENE,57,3.0,-999.0,59,-99.99,,,0.00,531.0,cwc,2013-01-02 18:10:00,
2013-01-02 11:15:00,16.9,2.1,30.55,NE,47,6.0,-999.0,59,-99.99,,,0.00,534.0,cwc,2013-01-02 18:15:00,
2013-01-02 11:20:00,17.6,2.5,30.55,NE,53,5.0,-999.0,58,-99.99,,,0.00,540.0,cwc,2013-01-02 18:20:00,
2013-01-02 11:25:00,18.2,2.7,30.54,NE,45,7.0,-999.0,57,-99.99,,,0.00,543.0,cwc,2013-01-02 18:25:00,
2013-01-02 11:30:00,18.6,2.4,30.54,NE,50,7.0,-999.0,55,-99.99,,,0.00,547.0,cwc,2013-01-02 18:30:00,
2013-01-02 11:35:00,18.9,2.7,30.53,NE,53,4.0,-999.0,55,-99.99,,,0.00,548.0,cwc,2013-01-02 18:35:00,
2013-01-02 11:40:00,19.4,3.2,30.53,NE,52,6.0,-999.0,55,-99.99,,,0.00,552.0,cwc,2013-01-02 18:40:00,
2013-01-02 11:45:00,19.8,3.2,30.52,NE,55,3.0,-999.0,54,-99.99,,,0.00,554.0,cwc,2013-01-02 18:45:00,
2013-01-02 11:50:00,20.5,3.9,30.52,NE,45,5.0,-999.0,54,-99.99,,,0.00,555.0,cwc,2013-01-02 18:50:00,
2013-01-02 11:55:00,21.2,4.6,30.51,NE,35,5.0,-999.0,54,-99.99,,,0.00,559.0,cwc,2013-01-02 18:55:00,
2013-01-02 12:00:00,21.5,3.9,30.50,ENE,73,4.0,-999.0,51,-99.99,,,0.00,557.0,cwc,2013-01-02 19:00:00,
2013-01-02 12:10:00,22.2,4.2,30.50,ENE,60,10.0,-999.0,50,-99.99,,,0.00,559.0,cwc,2013-01-02 19:10:00,
2013-01-02 12:15:00,22.5,4.5,30.49,NE,38,7.0,-999.0,50,-99.99,,,0.00,557.0,cwc,2013-01-02 19:15:00,
2013-01-02 12:20:00,22.8,4.8,30.49,NE,56,5.0,-999.0,50,-99.99,,,0.00,557.0,cwc,2013-01-02 19:20:00,
2013-01-02 12:25:00,23.2,4.1,30.48,ENE,58,7.0,-999.0,47,-99.99,,,0.00,555.0,cwc,2013-01-02 19:25:00,
2013-01-02 12:30:00,23.5,5.1,30.48,NE,46,6.0,-999.0,49,-99.99,,,0.00,555.0,cwc,2013-01-02 19:30:00,
2013-01-02 12:35:00,24.0,4.9,30.48,NE,49,5.0,-999.0,47,-99.99,,,0.00,552.0,cwc,2013-01-02 19:35:00,
2013-01-02 12:45:00,24.6,4.8,30.47,ENE,59,7.0,-999.0,45,-99.99,,,0.00,547.0,cwc,2013-01-02 19:45:00,
2013-01-02 12:55:00,24.9,5.5,30.46,NE,56,7.0,-999.0,46,-99.99,,,0.00,541.0,cwc,2013-01-02 19:55:00,
2013-01-02 13:00:00,25.2,6.1,30.46,NE,36,7.0,-999.0,47,-99.99,,,0.00,536.0,cwc,2013-01-02 20:00:00,
2013-01-02 13:05:00,25.4,5.2,30.45,NE,53,6.0,-999.0,44,-99.99,,,0.00,531.0,cwc,2013-01-02 20:05:00,
2013-01-02 13:10:00,25.7,5.5,30.45,NE,46,4.0,-999.0,44,-99.99,,,0.00,524.0,cwc,2013-01-02 20:10:00,
2013-01-02 13:15:00,25.9,5.7,30.45,ENE,57,4.0,-999.0,44,-99.99,,,0.00,520.0,cwc,2013-01-02 20:15:00,
2013-01-02 13:20:00,26.1,5.9,30.45,ENE,59,7.0,-999.0,44,-99.99,,,0.00,515.0,cwc,2013-01-02 20:20:00,
2013-01-02 13:25:00,26.3,5.8,30.44,NE,55,5.0,-999.0,43,-99.99,,,0.00,508.0,cwc,2013-01-02 20:25:00,
2013-01-02 13:30:00,26.4,5.9,30.44,NE,37,3.0,-999.0,43,-99.99,,,0.00,504.0,cwc,2013-01-02 20:30:00,
2013-01-02 13:35:00,26.5,6.0,30.44,ENE,64,5.0,-999.0,43,-99.99,,,0.00,496.0,cwc,2013-01-02 20:35:00,
2013-01-02 13:40:00,26.6,6.1,30.44,ENE,69,5.0,-999.0,43,-99.99,,,0.00,487.0,cwc,2013-01-02 20:40:00,
2013-01-02 13:45:00,26.6,6.4,30.44,NNE,13,3.0,-999.0,44,-99.99,,,0.00,478.0,cwc,2013-01-02 20:45:00,
2013-01-02 13:55:00,26.9,6.4,30.44,ENE,60,8.0,-999.0,43,-99.99,,,0.00,461.0,cwc,2013-01-02 20:55:00,
2013-01-02 14:00:00,27.1,6.6,30.44,NE,50,5.0,-999.0,43,-99.99,,,0.00,454.0,cwc,2013-01-02 21:00:00,
2013-01-02 14:05:00,27.4,6.5,30.44,ENE,57,4.0,-999.0,42,-99.99,,,0.00,443.0,cwc,2013-01-02 21:05:00,
2013-01-02 14:10:00,27.7,6.5,30.44,ENE,60,7.0,-999.0,41,-99.99,,,0.00,434.0,cwc,2013-01-02 21:10:00,
2013-01-02 14:15:00,27.8,6.9,30.44,NNE,30,5.0,-999.0,42,-99.99,,,0.00,422.0,cwc,2013-01-02 21:15:00,
2013-01-02 14:20:00,27.9,7.0,30.44,NNE,29,4.0,-999.0,42,-99.99,,,0.00,411.0,cwc,2013-01-02 21:20:00,
2013-01-02 14:25:00,28.1,7.6,30.44,NNE,30,6.0,-999.0,43,-99.99,,,0.00,399.0,cwc,2013-01-02 21:25:00,
2013-01-02 14:30:00,28.3,7.1,30.44,NE,55,6.0,-999.0,41,-99.99,,,0.01,390.0,cwc,2013-01-02 21:30:00,
2013-01-02 14:35:00,28.4,7.5,30.44,NE,34,3.0,-999.0,42,-99.99,,,0.01,381.0,cwc,2013-01-02 21:35:00,
2013-01-02 14:40:00,28.5,7.3,30.44,ENE,57,2.0,-999.0,41,-99.99,,,0.01,367.0,cwc,2013-01-02 21:40:00,
2013-01-02 14:45:00,28.7,7.5,30.44,ENE,57,3.0,-999.0,41,-99.99,,,0.01,355.0,cwc,2013-01-02 21:45:00,
2013-01-02 14:55:00,28.8,7.6,30.44,NE,55,3.0,-999.0,41,-99.99,,,0.01,329.0,cwc,2013-01-02 21:55:00,
2013-01-02 15:00:00,28.8,7.6,30.44,NNE,24,6.0,-999.0,41,-99.99,,,0.01,320.0,cwc,2013-01-02 22:00:00,
2013-01-02 15:05:00,28.8,7.6,30.44,NNE,22,7.0,-999.0,41,-99.99,,,0.01,301.0,cwc,2013-01-02 22:05:00,
2013-01-02 15:10:00,28.8,7.6,30.44,NNE,17,10.0,-999.0,41,-99.99,,,0.01,288.0,cwc,2013-01-02 22:10:00,
2013-01-02 15:15:00,28.5,7.3,30.44,NE,39,3.0,-999.0,41,-99.99,,,0.01,267.0,cwc,2013-01-02 22:15:00,
2013-01-02 15:25:00,28.5,7.3,30.45,NNE,32,7.0,-999.0,41,-99.99,,,0.01,193.0,cwc,2013-01-02 22:25:00,
2013-01-02 15:30:00,28.3,7.1,30.45,NNE,33,3.0,-999.0,41,-99.99,,,0.01,195.0,cwc,2013-01-02 22:30:00,
2013-01-02 15:35:00,28.1,6.9,30.45,NNE,22,2.0,-999.0,41,-99.99,,,0.01,148.0,cwc,2013-01-02 22:35:00,
2013-01-02 15:40:00,28.0,6.8,30.45,NNE,22,3.0,-999.0,41,-99.99,,,0.01,176.0,cwc,2013-01-02 22:40:00,
2013-01-02 15:45:00,27.8,6.6,30.45,NNE,22,4.0,-999.0,41,-99.99,,,0.01,125.0,cwc,2013-01-02 22:45:00,
2013-01-02 15:50:00,27.8,6.6,30.45,NNE,24,3.0,-999.0,41,-99.99,,,0.01,105.0,cwc,2013-01-02 22:50:00,
2013-01-02 15:55:00,27.6,6.4,30.45,NNE,22,1.0,-999.0,41,-99.99,,,0.01,114.0,cwc,2013-01-02 22:55:00,
2013-01-02 16:00:00,27.5,6.3,30.46,NNE,21,2.0,-999.0,41,-99.99,,,0.01,37.0,cwc,2013-01-02 23:00:00,
2013-01-02 16:05:00,27.1,6.2,30.46,NNE,19,3.0,-999.0,42,-99.99,,,0.01,23.0,cwc,2013-01-02 23:05:00,
2013-01-02 16:10:00,26.9,6.0,30.45,NNE,19,3.0,-999.0,42,-99.99,,,0.01,23.0,cwc,2013-01-02 23:10:00,
2013-01-02 16:15:00,26.6,6.1,30.45,NNE,20,3.0,-999.0,43,-99.99,,,0.01,19.0,cwc,2013-01-02 23:15:00,
2013-01-02 16:20:00,26.4,5.9,30.45,NNE,20,2.0,-999.0,43,-99.99,,,0.01,18.0,cwc,2013-01-02 23:20:00,
2013-01-02 16:25:00,26.3,5.8,30.45,NNE,19,3.0,-999.0,43,-99.99,,,0.01,16.0,cwc,2013-01-02 23:25:00,
2013-01-02 16:30:00,26.1,5.6,30.45,NNE,20,2.0,-999.0,43,-99.99,,,0.01,16.0,cwc,2013-01-02 23:30:00,
2013-01-02 16:40:00,25.6,5.4,30.45,NNE,20,0.0,-999.0,44,-99.99,,,0.01,12.0,cwc,2013-01-02 23:40:00,
2013-01-02 16:45:00,25.3,5.1,30.45,NNE,19,0.0,-999.0,44,-99.99,,,0.01,11.0,cwc,2013-01-02 23:45:00,
2013-01-02 16:50:00,25.0,5.2,30.46,NNE,20,0.0,-999.0,45,-99.99,,,0.01,7.0,cwc,2013-01-02 23:50:00,
2013-01-02 16:55:00,24.8,5.4,30.46,NNE,19,1.0,-999.0,46,-99.99,,,0.01,5.0,cwc,2013-01-02 23:55:00,
2013-01-02 17:00:00,24.4,5.3,30.46,NNE,20,3.0,-999.0,47,-99.99,,,0.01,0.0,cwc,2013-01-03 00:00:00,
2013-01-02 17:05:00,23.7,5.0,30.46,NNE,20,4.0,-999.0,48,-99.99,,,0.01,0.0,cwc,2013-01-03 00:05:00,
2013-01-02 17:10:00,23.0,4.6,30.46,NNE,20,1.0,-999.0,49,-99.99,,,0.01,0.0,cwc,2013-01-03 00:10:00,
2013-01-02 17:15:00,22.5,4.5,30.46,NNE,20,2.0,-999.0,50,-99.99,,,0.01,0.0,cwc,2013-01-03 00:15:00,
2013-01-02 17:20:00,22.1,4.5,30.46,NNE,18,1.0,-999.0,51,-99.99,,,0.01,0.0,cwc,2013-01-03 00:20:00,
2013-01-02 17:25:00,21.5,3.9,30.47,NNE,19,2.0,-999.0,51,-99.99,,,0.01,0.0,cwc,2013-01-03 00:25:00,
2013-01-02 17:30:00,21.0,3.7,30.47,NNE,19,2.0,-999.0,52,-99.99,,,0.01,0.0,cwc,2013-01-03 00:30:00,
2013-01-02 17:35:00,20.3,3.4,30.47,NNE,19,0.0,-999.0,53,-99.99,,,0.01,0.0,cwc,2013-01-03 00:35:00,
2013-01-02 17:40:00,19.5,2.9,30.48,NNE,18,3.0,-999.0,54,-99.99,,,0.01,0.0,cwc,2013-01-03 00:40:00,
2013-01-02 17:45:00,18.9,2.7,30.48,NNE,19,0.0,-999.0,55,-99.99,,,0.01,0.0,cwc,2013-01-03 00:45:00,
2013-01-02 17:50:00,18.9,3.1,30.49,NNE,20,2.0,-999.0,56,-99.99,,,0.01,0.0,cwc,2013-01-03 00:50:00,
2013-01-02 17:55:00,18.9,2.7,30.49,NNE,19,2.0,-999.0,55,-99.99,,,0.01,0.0,cwc,2013-01-03 00:55:00,
2013-01-02 18:00:00,19.7,3.1,30.49,North,5,0.0,-999.0,54,-99.99,,,0.01,0.0,cwc,2013-01-03 01:00:00,
2013-01-02 18:05:00,19.8,3.2,30.49,North,5,1.0,-999.0,54,-99.99,,,0.01,0.0,cwc,2013-01-03 01:05:00,
2013-01-02 18:10:00,20.2,3.3,30.50,NNE,22,5.0,-999.0,53,-99.99,,,0.01,0.0,cwc,2013-01-03 01:10:00,
2013-01-02 18:15:00,21.1,3.5,30.50,North,355,2.0,-999.0,51,-99.99,,,0.01,0.0,cwc,2013-01-03 01:15:00,
2013-01-02 18:25:00,21.5,3.1,30.51,NNE,17,5.0,-999.0,49,-99.99,,,0.01,0.0,cwc,2013-01-03 01:25:00,
2013-01-02 18:30:00,21.5,3.1,30.51,NNE,18,4.0,-999.0,49,-99.99,,,0.01,0.0,cwc,2013-01-03 01:30:00,
2013-01-02 18:35:00,21.3,2.9,30.51,North,355,4.0,-999.0,49,-99.99,,,0.01,0.0,cwc,2013-01-03 01:35:00,
2013-01-02 18:40:00,21.1,2.7,30.51,North,355,4.0,-999.0,49,-99.99,,,0.01,0.0,cwc,2013-01-03 01:40:00,
2013-01-02 18:45:00,20.9,2.9,30.52,North,360,4.0,-999.0,50,-99.99,,,0.01,0.0,cwc,2013-01-03 01:45:00,
2013-01-02 18:50:00,20.9,2.9,30.52,North,5,5.0,-999.0,50,-99.99,,,0.01,0.0,cwc,2013-01-03 01:50:00,
2013-01-02 18:55:00,20.7,3.1,30.52,North,5,0.0,-999.0,51,-99.99,,,0.01,0.0,cwc,2013-01-03 01:55:00,
2013-01-02 19:00:00,20.4,2.8,30.52,North,5,3.0,-999.0,51,-99.99,,,0.01,0.0,cwc,2013-01-03 02:00:00,
2013-01-02 19:05:00,20.2,2.6,30.52,North,360,3.0,-999.0,51,-99.99,,,0.01,0.0,cwc,2013-01-03 02:05:00,
2013-01-02 19:10:00,20.1,2.5,30.53,North,5,4.0,-999.0,51,-99.99,,,0.01,0.0,cwc,2013-01-03 02:10:00,
2013-01-02 19:15:00,20.0,2.4,30.53,North,360,3.0,-999.0,51,-99.99,,,0.01,0.0,cwc,2013-01-03 02:15:00,
2013-01-02 19:20:00,19.7,2.1,30.53,North,9,6.0,-999.0,51,-99.99,,,0.01,0.0,cwc,2013-01-03 02:20:00,
2013-01-02 19:30:00,17.8,1.2,30.53,North,9,2.0,-999.0,54,-99.99,,,0.01,0.0,cwc,2013-01-03 02:30:00,
2013-01-02 19:35:00,16.8,1.0,30.54,North,9,2.0,-999.0,56,-99.99,,,0.01,0.0,cwc,2013-01-03 02:35:00,
2013-01-02 19:40:00,16.1,0.6,30.54,North,9,0.0,-999.0,57,-99.99,,,0.01,0.0,cwc,2013-01-03 02:40:00,
2013-01-02 19:45:00,15.5,0.4,30.54,North,9,0.0,-999.0,58,-99.99,,,0.01,0.0,cwc,2013-01-03 02:45:00,
2013-01-02 19:50:00,14.9,0.1,30.54,North,9,0.0,-999.0,59,-99.99,,,0.01,0.0,cwc,2013-01-03 02:50:00,
2013-01-02 19:55:00,14.4,0.4,30.54,North,9,0.0,-999.0,61,-99.99,,,0.01,0.0,cwc,2013-01-03 02:55:00,
2013-01-02 20:00:00,14.1,-0.3,30.55,North,9,0.0,-999.0,60,-99.99,,,0.01,0.0,cwc,2013-01-03 03:00:00,
2013-01-02 20:10:00,12.5,-0.8,30.55,North,9,1.0,-999.0,63,-99.99,,,0.01,0.0,cwc,2013-01-03 03:10:00,
2013-01-02 20:15:00,11.8,-1.5,30.55,North,9,1.0,-999.0,63,-99.99,,,0.01,0.0,cwc,2013-01-03 03:15:00,
2013-01-02 20:20:00,10.9,-2.1,30.56,North,9,3.0,-999.0,64,-99.99,,,0.01,0.0,cwc,2013-01-03 03:20:00,
2013-01-02 20:25:00,10.3,-1.9,30.56,North,9,3.0,-999.0,66,-99.99,,,0.01,0.0,cwc,2013-01-03 03:25:00,
2013-01-02 20:30:00,9.9,-1.6,30.56,North,9,0.0,-999.0,68,-99.99,,,0.01,0.0,cwc,2013-01-03 03:30:00,
2013-01-02 20:45:00,9.6,-2.6,30.57,North,9,1.0,-999.0,66,-99.99,,,0.01,0.0,cwc,2013-01-03 03:45:00,
2013-01-02 20:50:00,9.2,-2.3,30.57,North,9,0.0,-999.0,68,-99.99,,,0.01,0.0,cwc,2013-01-03 03:50:00,
2013-01-02 21:00:00,8.4,-3.1,30.57,North,9,4.0,-999.0,68,-99.99,,,0.01,0.0,cwc,2013-01-03 04:00:00,
2013-01-02 21:05:00,8.6,-1.8,30.58,North,360,5.0,-999.0,71,-99.99,,,0.01,0.0,cwc,2013-01-03 04:05:00,
2013-01-02 21:10:00,10.1,-0.7,30.58,North,349,6.0,-999.0,70,-99.99,,,0.01,0.0,cwc,2013-01-03 04:10:00,
2013-01-02 21:15:00,11.4,-0.8,30.59,North,350,6.0,-999.0,66,-99.99,,,0.01,0.0,cwc,2013-01-03 04:15:00,
2013-01-02 21:20:00,11.8,-1.2,30.59,NNW,348,4.0,-999.0,64,-99.99,,,0.01,0.0,cwc,2013-01-03 04:20:00,
2013-01-02 21:25:00,12.0,-1.3,30.59,North,350,3.0,-999.0,63,-99.99,,,0.01,0.0,cwc,2013-01-03 04:25:00,
2013-01-02 21:30:00,12.1,-1.2,30.60,North,355,2.0,-999.0,63,-99.99,,,0.01,0.0,cwc,2013-01-03 04:30:00,
2013-01-02 21:35:00,12.1,-1.6,30.60,North,355,3.0,-999.0,62,-99.99,,,0.01,0.0,cwc,2013-01-03 04:35:00,
2013-01-02 21:40:00,12.2,-1.5,30.60,North,355,4.0,-999.0,62,-99.99,,,0.01,0.0,cwc,2013-01-03 04:40:00,
2013-01-02 21:45:00,12.2,-1.5,30.61,North,355,4.0,-999.0,62,-99.99,,,0.01,0.0,cwc,2013-01-03 04:45:00,
2013-01-02 21:50:00,12.0,-1.7,30.61,NNW,338,5.0,-999.0,62,-99.99,,,0.01,0.0,cwc,2013-01-03 04:50:00,
2013-01-02 21:55:00,11.9,-1.8,30.61,NNW,330,2.0,-999.0,62,-99.99,,,0.01,0.0,cwc,2013-01-03 04:55:00,
2013-01-02 22:00:00,11.6,-2.1,30.61,NNW,333,4.0,-999.0,62,-99.99,,,0.01,0.0,cwc,2013-01-03 05:00:00,
2013-01-02 22:35:00,9.9,-3.1,30.62,NW,326,3.0,-999.0,64,-99.99,,,0.01,0.0,cwc,2013-01-03 05:35:00,
2013-01-02 22:40:00,9.9,-3.1,30.62,NNW,333,5.0,-999.0,64,-99.99,,,0.01,0.0,cwc,2013-01-03 05:40:00,
2013-01-02 22:45:00,9.8,-3.2,30.62,NNW,336,1.0,-999.0,64,-99.99,,,0.01,0.0,cwc,2013-01-03 05:45:00,
2013-01-02 22:50:00,9.5,-3.1,30.62,NNW,336,3.0,-999.0,65,-99.99,,,0.01,0.0,cwc,2013-01-03 05:50:00,
2013-01-02 23:00:00,8.2,-4.4,30.63,NNW,336,2.0,-999.0,65,-99.99,,,0.01,0.0,cwc,2013-01-03 06:00:00,
2013-01-02 23:05:00,7.6,-4.6,30.63,NNW,336,2.0,-999.0,66,-99.99,,,0.01,0.0,cwc,2013-01-03 06:05:00,
2013-01-02 23:10:00,7.3,-4.2,30.63,NNW,333,3.0,-999.0,68,-99.99,,,0.01,0.0,cwc,2013-01-03 06:10:00,
2013-01-02 23:15:00,7.4,-4.1,30.63,North,355,4.0,-999.0,68,-99.99,,,0.01,0.0,cwc,2013-01-03 06:15:00,
2013-01-02 23:20:00,7.6,-4.3,30.63,NNW,348,5.0,-999.0,67,-99.99,,,0.01,0.0,cwc,2013-01-03 06:20:00,
2013-01-02 23:25:00,7.8,-4.1,30.63,NNW,343,3.0,-999.0,67,-99.99,,,0.01,0.0,cwc,2013-01-03 06:25:00,
2013-01-02 23:30:00,7.8,-4.4,30.63,NNW,343,1.0,-999.0,66,-99.99,,,0.01,0.0,cwc,2013-01-03 06:30:00,
2013-01-02 23:35:00,6.8,-6.2,30.63,NNW,342,2.0,-999.0,64,-99.99,,,0.01,0.0,cwc,2013-01-03 06:35:00,
2013-01-02 23:40:00,5.4,-7.2,30.63,NNW,343,2.0,-999.0,65,-99.99,,,0.01,0.0,cwc,2013-01-03 06:40:00,
2013-01-02 23:45:00,4.1,-7.8,30.63,NNW,343,2.0,-999.0,67,-99.99,,,0.01,0.0,cwc,2013-01-03 06:45:00,
2013-01-02 23:50:00,3.2,-7.2,30.64,NNW,343,0.0,-999.0,71,-99.99,,,0.01,0.0,cwc,2013-01-03 06:50:00,
2013-01-02 23:55:00,2.8,-6.9,30.64,NNW,343,2.0,-999.0,73,-99.99,,,0.01,0.0,cwc,2013-01-03 06:55:00,